sensor_id;sensor_type;location;lat;lon;timestamp;temperature;humidity
19248;DHT22;9758;48.640;8.148;2023-02-15T00:01:27;3.90;60.30
19248;DHT22;9758;48.640;8.148;2023-02-15T00:03:54;3.90;60.30
19248;DHT22;9758;48.640;8.148;2023-02-15T00:06:21;3.90;60.20
19248;DHT22;9758;48.640;8.148;2023-02-15T00:08:47;3.90;60.20
19248;DHT22;9758;48.640;8.148;2023-02-15T00:11:15;3.90;60.20
19248;DHT22;9758;48.640;8.148;2023-02-15T00:14:02;3.80;60.10
19248;DHT22;9758;48.640;8.148;2023-02-15T00:16:30;3.80;60.10
19248;DHT22;9758;48.640;8.148;2023-02-15T00:18:57;3.80;60.10
19248;DHT22;9758;48.640;8.148;2023-02-15T00:21:27;3.70;60.00
19248;DHT22;9758;48.640;8.148;2023-02-15T00:23:53;3.70;60.10
19248;DHT22;9758;48.640;8.148;2023-02-15T00:26:20;3.70;60.10
19248;DHT22;9758;48.640;8.148;2023-02-15T00:28:46;3.60;60.20
19248;DHT22;9758;48.640;8.148;2023-02-15T00:31:13;3.60;60.20
19248;DHT22;9758;48.640;8.148;2023-02-15T00:33:41;3.60;61.00
19248;DHT22;9758;48.640;8.148;2023-02-15T00:36:08;3.60;60.30
19248;DHT22;9758;48.640;8.148;2023-02-15T00:38:35;3.60;60.30
19248;DHT22;9758;48.640;8.148;2023-02-15T00:41:02;3.60;60.30
19248;DHT22;9758;48.640;8.148;2023-02-15T00:43:29;3.60;60.40
19248;DHT22;9758;48.640;8.148;2023-02-15T00:45:56;3.60;60.40
19248;DHT22;9758;48.640;8.148;2023-02-15T00:48:23;3.60;60.30
19248;DHT22;9758;48.640;8.148;2023-02-15T00:50:52;3.70;60.40
19248;DHT22;9758;48.640;8.148;2023-02-15T00:53:19;3.70;60.40
19248;DHT22;9758;48.640;8.148;2023-02-15T00:55:46;3.60;60.30
19248;DHT22;9758;48.640;8.148;2023-02-15T00:58:13;3.70;60.40
19248;DHT22;9758;48.640;8.148;2023-02-15T01:00:40;3.60;60.40
19248;DHT22;9758;48.640;8.148;2023-02-15T01:03:07;3.60;60.40
19248;DHT22;9758;48.640;8.148;2023-02-15T01:05:33;3.60;60.40
19248;DHT22;9758;48.640;8.148;2023-02-15T01:08:01;3.60;60.30
19248;DHT22;9758;48.640;8.148;2023-02-15T01:10:28;3.70;60.40
19248;DHT22;9758;48.640;8.148;2023-02-15T01:12:55;3.60;60.20
19248;DHT22;9758;48.640;8.148;2023-02-15T01:15:22;3.60;60.20
19248;DHT22;9758;48.640;8.148;2023-02-15T01:17:48;3.60;60.20
19248;DHT22;9758;48.640;8.148;2023-02-15T01:20:18;3.50;60.20
19248;DHT22;9758;48.640;8.148;2023-02-15T01:22:44;3.50;60.20
19248;DHT22;9758;48.640;8.148;2023-02-15T01:25:12;3.50;60.30
19248;DHT22;9758;48.640;8.148;2023-02-15T01:27:39;3.50;60.30
19248;DHT22;9758;48.640;8.148;2023-02-15T01:30:06;3.50;60.30
19248;DHT22;9758;48.640;8.148;2023-02-15T01:32:34;3.50;60.20
19248;DHT22;9758;48.640;8.148;2023-02-15T01:35:00;3.50;60.30
19248;DHT22;9758;48.640;8.148;2023-02-15T01:37:27;3.40;60.20
19248;DHT22;9758;48.640;8.148;2023-02-15T01:39:56;3.40;60.30
19248;DHT22;9758;48.640;8.148;2023-02-15T01:42:24;3.40;60.20
19248;DHT22;9758;48.640;8.148;2023-02-15T01:44:51;3.40;60.40
19248;DHT22;9758;48.640;8.148;2023-02-15T01:47:19;3.40;60.40
19248;DHT22;9758;48.640;8.148;2023-02-15T01:49:48;3.40;60.40
19248;DHT22;9758;48.640;8.148;2023-02-15T01:52:18;3.40;60.40
19248;DHT22;9758;48.640;8.148;2023-02-15T01:54:45;3.40;60.40
19248;DHT22;9758;48.640;8.148;2023-02-15T01:57:13;3.40;60.40
19248;DHT22;9758;48.640;8.148;2023-02-15T01:59:44;3.40;60.50
19248;DHT22;9758;48.640;8.148;2023-02-15T02:02:12;3.40;60.50
19248;DHT22;9758;48.640;8.148;2023-02-15T02:04:41;3.50;60.50
19248;DHT22;9758;48.640;8.148;2023-02-15T02:07:09;3.50;60.50
19248;DHT22;9758;48.640;8.148;2023-02-15T02:09:36;3.50;60.50
19248;DHT22;9758;48.640;8.148;2023-02-15T02:12:03;3.50;60.40
19248;DHT22;9758;48.640;8.148;2023-02-15T02:14:30;3.50;60.40
19248;DHT22;9758;48.640;8.148;2023-02-15T02:16:58;3.40;60.40
19248;DHT22;9758;48.640;8.148;2023-02-15T02:19:43;3.40;60.40
19248;DHT22;9758;48.640;8.148;2023-02-15T02:22:20;3.40;60.40
19248;DHT22;9758;48.640;8.148;2023-02-15T02:27:36;3.40;60.50
19248;DHT22;9758;48.640;8.148;2023-02-15T02:32:59;3.30;60.50
19248;DHT22;9758;48.640;8.148;2023-02-15T02:35:30;3.30;60.50
19248;DHT22;9758;48.640;8.148;2023-02-15T02:38:00;3.40;60.50
19248;DHT22;9758;48.640;8.148;2023-02-15T02:40:31;3.30;60.50
19248;DHT22;9758;48.640;8.148;2023-02-15T02:43:02;3.40;60.50
19248;DHT22;9758;48.640;8.148;2023-02-15T02:45:32;3.30;60.50
19248;DHT22;9758;48.640;8.148;2023-02-15T02:48:03;3.40;60.50
19248;DHT22;9758;48.640;8.148;2023-02-15T02:50:31;3.40;60.50
19248;DHT22;9758;48.640;8.148;2023-02-15T02:52:58;3.30;60.40
19248;DHT22;9758;48.640;8.148;2023-02-15T02:55:25;3.30;60.40
19248;DHT22;9758;48.640;8.148;2023-02-15T02:57:54;3.30;60.40
19248;DHT22;9758;48.640;8.148;2023-02-15T03:00:22;3.30;60.40
19248;DHT22;9758;48.640;8.148;2023-02-15T03:02:50;3.30;60.50
19248;DHT22;9758;48.640;8.148;2023-02-15T03:05:21;3.30;60.50
19248;DHT22;9758;48.640;8.148;2023-02-15T03:07:49;3.30;60.50
19248;DHT22;9758;48.640;8.148;2023-02-15T03:10:18;3.30;60.50
19248;DHT22;9758;48.640;8.148;2023-02-15T03:12:47;3.30;60.60
19248;DHT22;9758;48.640;8.148;2023-02-15T03:15:14;3.30;60.60
19248;DHT22;9758;48.640;8.148;2023-02-15T03:17:43;3.30;60.50
19248;DHT22;9758;48.640;8.148;2023-02-15T03:20:11;3.30;60.50
19248;DHT22;9758;48.640;8.148;2023-02-15T03:22:42;3.30;60.50
19248;DHT22;9758;48.640;8.148;2023-02-15T03:25:12;3.30;60.50
19248;DHT22;9758;48.640;8.148;2023-02-15T03:27:39;3.30;60.50
19248;DHT22;9758;48.640;8.148;2023-02-15T03:30:07;3.30;60.50
19248;DHT22;9758;48.640;8.148;2023-02-15T03:32:35;3.30;60.40
19248;DHT22;9758;48.640;8.148;2023-02-15T03:35:02;3.30;60.40
19248;DHT22;9758;48.640;8.148;2023-02-15T03:37:41;3.30;60.50
19248;DHT22;9758;48.640;8.148;2023-02-15T03:40:11;3.30;60.50
19248;DHT22;9758;48.640;8.148;2023-02-15T03:42:59;3.30;60.50
19248;DHT22;9758;48.640;8.148;2023-02-15T03:45:28;3.30;60.40
19248;DHT22;9758;48.640;8.148;2023-02-15T03:47:56;3.30;60.50
19248;DHT22;9758;48.640;8.148;2023-02-15T03:50:24;3.30;60.50
19248;DHT22;9758;48.640;8.148;2023-02-15T03:53:18;3.30;61.20
19248;DHT22;9758;48.640;8.148;2023-02-15T03:55:47;3.30;60.40
19248;DHT22;9758;48.640;8.148;2023-02-15T03:58:14;3.30;60.40
19248;DHT22;9758;48.640;8.148;2023-02-15T04:00:58;3.30;60.40
19248;DHT22;9758;48.640;8.148;2023-02-15T04:03:59;3.30;60.50
19248;DHT22;9758;48.640;8.148;2023-02-15T04:06:32;3.30;60.50
19248;DHT22;9758;48.640;8.148;2023-02-15T04:08:59;3.30;61.20
19248;DHT22;9758;48.640;8.148;2023-02-15T04:11:44;3.40;60.50
19248;DHT22;9758;48.640;8.148;2023-02-15T04:14:11;3.40;60.50
19248;DHT22;9758;48.640;8.148;2023-02-15T04:16:52;3.40;60.50
19248;DHT22;9758;48.640;8.148;2023-02-15T04:19:18;3.40;60.50
19248;DHT22;9758;48.640;8.148;2023-02-15T04:22:02;3.40;60.50
19248;DHT22;9758;48.640;8.148;2023-02-15T04:24:47;3.40;60.50
19248;DHT22;9758;48.640;8.148;2023-02-15T04:27:32;3.30;60.40
19248;DHT22;9758;48.640;8.148;2023-02-15T04:29:59;3.30;60.40
19248;DHT22;9758;48.640;8.148;2023-02-15T04:32:25;3.30;60.40
19248;DHT22;9758;48.640;8.148;2023-02-15T04:34:52;3.30;60.40
19248;DHT22;9758;48.640;8.148;2023-02-15T04:37:19;3.30;60.40
19248;DHT22;9758;48.640;8.148;2023-02-15T04:39:45;3.30;60.40
19248;DHT22;9758;48.640;8.148;2023-02-15T04:42:12;3.30;60.40
19248;DHT22;9758;48.640;8.148;2023-02-15T04:44:40;3.30;60.40
19248;DHT22;9758;48.640;8.148;2023-02-15T04:47:06;3.30;60.40
19248;DHT22;9758;48.640;8.148;2023-02-15T04:49:33;3.30;60.40
19248;DHT22;9758;48.640;8.148;2023-02-15T04:51:59;3.30;60.50
19248;DHT22;9758;48.640;8.148;2023-02-15T04:54:26;3.30;60.40
19248;DHT22;9758;48.640;8.148;2023-02-15T04:56:53;3.30;60.40
19248;DHT22;9758;48.640;8.148;2023-02-15T04:59:19;3.30;60.40
19248;DHT22;9758;48.640;8.148;2023-02-15T05:01:47;3.30;60.40
19248;DHT22;9758;48.640;8.148;2023-02-15T05:04:14;3.30;61.10
19248;DHT22;9758;48.640;8.148;2023-02-15T05:06:40;3.30;60.40
19248;DHT22;9758;48.640;8.148;2023-02-15T05:09:07;3.30;60.40
19248;DHT22;9758;48.640;8.148;2023-02-15T05:11:33;3.30;60.40
19248;DHT22;9758;48.640;8.148;2023-02-15T05:14:00;3.30;60.40
19248;DHT22;9758;48.640;8.148;2023-02-15T05:16:27;3.30;60.50
19248;DHT22;9758;48.640;8.148;2023-02-15T05:18:55;3.30;60.50
19248;DHT22;9758;48.640;8.148;2023-02-15T05:21:21;3.30;60.40
19248;DHT22;9758;48.640;8.148;2023-02-15T05:23:48;3.20;60.40
19248;DHT22;9758;48.640;8.148;2023-02-15T05:26:16;3.20;60.40
19248;DHT22;9758;48.640;8.148;2023-02-15T05:29:00;3.20;60.40
19248;DHT22;9758;48.640;8.148;2023-02-15T05:31:27;3.20;60.40
19248;DHT22;9758;48.640;8.148;2023-02-15T05:33:55;3.20;60.40
19248;DHT22;9758;48.640;8.148;2023-02-15T05:36:21;3.20;60.40
19248;DHT22;9758;48.640;8.148;2023-02-15T05:38:48;3.20;60.50
19248;DHT22;9758;48.640;8.148;2023-02-15T05:41:14;3.10;60.40
19248;DHT22;9758;48.640;8.148;2023-02-15T05:43:41;3.10;60.40
19248;DHT22;9758;48.640;8.148;2023-02-15T05:46:08;3.10;60.40
19248;DHT22;9758;48.640;8.148;2023-02-15T05:48:34;3.00;60.40
19248;DHT22;9758;48.640;8.148;2023-02-15T05:51:03;3.00;60.40
19248;DHT22;9758;48.640;8.148;2023-02-15T05:53:31;2.90;60.50
19248;DHT22;9758;48.640;8.148;2023-02-15T05:55:58;2.90;60.60
19248;DHT22;9758;48.640;8.148;2023-02-15T05:58:25;2.90;61.40
19248;DHT22;9758;48.640;8.148;2023-02-15T06:00:52;2.90;60.70
19248;DHT22;9758;48.640;8.148;2023-02-15T06:03:18;2.90;60.70
19248;DHT22;9758;48.640;8.148;2023-02-15T06:05:45;3.00;60.60
19248;DHT22;9758;48.640;8.148;2023-02-15T06:08:13;3.00;60.50
19248;DHT22;9758;48.640;8.148;2023-02-15T06:10:39;2.90;60.50
19248;DHT22;9758;48.640;8.148;2023-02-15T06:13:06;2.90;60.40
19248;DHT22;9758;48.640;8.148;2023-02-15T06:15:33;2.90;60.40
19248;DHT22;9758;48.640;8.148;2023-02-15T06:17:59;2.80;60.40
19248;DHT22;9758;48.640;8.148;2023-02-15T06:20:27;2.80;60.40
19248;DHT22;9758;48.640;8.148;2023-02-15T06:22:53;2.80;60.50
19248;DHT22;9758;48.640;8.148;2023-02-15T06:25:21;2.80;60.60
19248;DHT22;9758;48.640;8.148;2023-02-15T06:27:48;2.80;60.60
19248;DHT22;9758;48.640;8.148;2023-02-15T06:30:15;2.80;60.70
19248;DHT22;9758;48.640;8.148;2023-02-15T06:32:41;2.80;60.50
19248;DHT22;9758;48.640;8.148;2023-02-15T06:35:08;2.80;60.50
19248;DHT22;9758;48.640;8.148;2023-02-15T06:37:35;2.80;60.50
19248;DHT22;9758;48.640;8.148;2023-02-15T06:40:01;2.80;60.50
19248;DHT22;9758;48.640;8.148;2023-02-15T06:42:30;2.80;60.50
19248;DHT22;9758;48.640;8.148;2023-02-15T06:44:57;2.80;60.60
19248;DHT22;9758;48.640;8.148;2023-02-15T06:47:25;2.80;60.60
19248;DHT22;9758;48.640;8.148;2023-02-15T06:49:52;2.80;60.60
19248;DHT22;9758;48.640;8.148;2023-02-15T06:52:18;2.80;60.60
19248;DHT22;9758;48.640;8.148;2023-02-15T06:54:45;2.80;60.70
19248;DHT22;9758;48.640;8.148;2023-02-15T06:57:11;2.80;60.70
19248;DHT22;9758;48.640;8.148;2023-02-15T06:59:39;2.80;60.70
19248;DHT22;9758;48.640;8.148;2023-02-15T07:02:06;2.80;60.80
19248;DHT22;9758;48.640;8.148;2023-02-15T07:04:32;2.80;60.70
19248;DHT22;9758;48.640;8.148;2023-02-15T07:06:59;2.90;60.70
19248;DHT22;9758;48.640;8.148;2023-02-15T07:09:25;2.80;60.70
19248;DHT22;9758;48.640;8.148;2023-02-15T07:11:52;2.80;60.60
19248;DHT22;9758;48.640;8.148;2023-02-15T07:14:36;2.80;60.50
19248;DHT22;9758;48.640;8.148;2023-02-15T07:17:04;2.80;60.50
19248;DHT22;9758;48.640;8.148;2023-02-15T07:19:30;2.70;60.50
19248;DHT22;9758;48.640;8.148;2023-02-15T07:21:57;2.70;60.50
19248;DHT22;9758;48.640;8.148;2023-02-15T07:24:24;2.70;60.60
19248;DHT22;9758;48.640;8.148;2023-02-15T07:26:50;2.70;60.70
19248;DHT22;9758;48.640;8.148;2023-02-15T07:29:17;2.70;60.70
19248;DHT22;9758;48.640;8.148;2023-02-15T07:31:43;2.70;60.70
19248;DHT22;9758;48.640;8.148;2023-02-15T07:34:11;2.70;60.80
19248;DHT22;9758;48.640;8.148;2023-02-15T07:36:38;2.70;60.80
19248;DHT22;9758;48.640;8.148;2023-02-15T07:39:05;2.70;60.80
19248;DHT22;9758;48.640;8.148;2023-02-15T07:41:31;2.70;60.80
19248;DHT22;9758;48.640;8.148;2023-02-15T07:43:58;2.80;60.90
19248;DHT22;9758;48.640;8.148;2023-02-15T07:46:24;2.80;60.80
19248;DHT22;9758;48.640;8.148;2023-02-15T07:48:51;2.80;60.80
19248;DHT22;9758;48.640;8.148;2023-02-15T07:51:19;2.90;60.90
19248;DHT22;9758;48.640;8.148;2023-02-15T07:53:45;2.90;61.00
19248;DHT22;9758;48.640;8.148;2023-02-15T07:56:13;3.00;61.00
19248;DHT22;9758;48.640;8.148;2023-02-15T07:58:40;3.00;60.80
19248;DHT22;9758;48.640;8.148;2023-02-15T08:01:22;3.10;61.60
19248;DHT22;9758;48.640;8.148;2023-02-15T08:03:49;3.10;60.80
19248;DHT22;9758;48.640;8.148;2023-02-15T08:06:15;3.20;60.70
19248;DHT22;9758;48.640;8.148;2023-02-15T08:08:43;3.20;60.50
19248;DHT22;9758;48.640;8.148;2023-02-15T08:11:14;3.20;60.60
19248;DHT22;9758;48.640;8.148;2023-02-15T08:13:59;3.20;60.60
19248;DHT22;9758;48.640;8.148;2023-02-15T08:16:29;3.30;60.70
19248;DHT22;9758;48.640;8.148;2023-02-15T08:18:56;3.30;60.70
19248;DHT22;9758;48.640;8.148;2023-02-15T08:21:23;3.40;60.70
19248;DHT22;9758;48.640;8.148;2023-02-15T08:23:52;3.50;60.70
19248;DHT22;9758;48.640;8.148;2023-02-15T08:26:18;3.50;60.70
19248;DHT22;9758;48.640;8.148;2023-02-15T08:28:45;3.60;60.80
19248;DHT22;9758;48.640;8.148;2023-02-15T08:31:12;3.70;60.70
19248;DHT22;9758;48.640;8.148;2023-02-15T08:33:40;3.70;60.50
19248;DHT22;9758;48.640;8.148;2023-02-15T08:36:08;3.80;60.60
19248;DHT22;9758;48.640;8.148;2023-02-15T08:38:35;3.80;60.40
19248;DHT22;9758;48.640;8.148;2023-02-15T08:41:10;3.90;60.40
19248;DHT22;9758;48.640;8.148;2023-02-15T08:43:36;3.80;60.30
19248;DHT22;9758;48.640;8.148;2023-02-15T08:46:03;3.90;60.40
19248;DHT22;9758;48.640;8.148;2023-02-15T08:48:30;3.90;60.40
19248;DHT22;9758;48.640;8.148;2023-02-15T08:50:56;3.90;60.40
19248;DHT22;9758;48.640;8.148;2023-02-15T08:53:23;4.00;60.50
19248;DHT22;9758;48.640;8.148;2023-02-15T08:55:54;4.00;60.50
19248;DHT22;9758;48.640;8.148;2023-02-15T08:58:22;4.10;60.60
19248;DHT22;9758;48.640;8.148;2023-02-15T09:00:49;4.20;60.50
19248;DHT22;9758;48.640;8.148;2023-02-15T09:03:15;4.20;60.40
19248;DHT22;9758;48.640;8.148;2023-02-15T09:05:42;4.30;60.40
19248;DHT22;9758;48.640;8.148;2023-02-15T09:08:08;4.30;60.20
19248;DHT22;9758;48.640;8.148;2023-02-15T09:10:35;4.40;60.20
19248;DHT22;9758;48.640;8.148;2023-02-15T09:13:01;4.40;60.20
19248;DHT22;9758;48.640;8.148;2023-02-15T09:15:29;4.40;60.10
19248;DHT22;9758;48.640;8.148;2023-02-15T09:17:56;4.40;60.70
19248;DHT22;9758;48.640;8.148;2023-02-15T09:20:24;4.30;60.20
19248;DHT22;9758;48.640;8.148;2023-02-15T09:22:51;4.40;60.40
19248;DHT22;9758;48.640;8.148;2023-02-15T09:25:17;4.40;60.40
19248;DHT22;9758;48.640;8.148;2023-02-15T09:27:44;4.40;60.30
19248;DHT22;9758;48.640;8.148;2023-02-15T09:30:11;4.40;60.20
19248;DHT22;9758;48.640;8.148;2023-02-15T09:32:39;4.50;60.30
19248;DHT22;9758;48.640;8.148;2023-02-15T09:35:06;4.50;60.20
19248;DHT22;9758;48.640;8.148;2023-02-15T09:37:32;4.50;60.20
19248;DHT22;9758;48.640;8.148;2023-02-15T09:39:59;4.60;60.20
19248;DHT22;9758;48.640;8.148;2023-02-15T09:42:35;4.60;60.20
19248;DHT22;9758;48.640;8.148;2023-02-15T09:45:11;4.60;60.30
19248;DHT22;9758;48.640;8.148;2023-02-15T09:50:27;4.70;60.40
19248;DHT22;9758;48.640;8.148;2023-02-15T09:52:59;4.80;60.20
19248;DHT22;9758;48.640;8.148;2023-02-15T09:55:39;4.70;60.10
19248;DHT22;9758;48.640;8.148;2023-02-15T09:58:11;4.60;60.10
19248;DHT22;9758;48.640;8.148;2023-02-15T10:00:42;4.50;60.20
19248;DHT22;9758;48.640;8.148;2023-02-15T10:03:13;4.40;60.70
19248;DHT22;9758;48.640;8.148;2023-02-15T10:05:53;4.40;60.60
19248;DHT22;9758;48.640;8.148;2023-02-15T10:08:45;4.40;60.80
19248;DHT22;9758;48.640;8.148;2023-02-15T10:11:14;4.50;60.80
19248;DHT22;9758;48.640;8.148;2023-02-15T10:14:03;4.50;61.00
19248;DHT22;9758;48.640;8.148;2023-02-15T10:16:34;4.60;61.10
19248;DHT22;9758;48.640;8.148;2023-02-15T10:19:03;4.70;61.10
19248;DHT22;9758;48.640;8.148;2023-02-15T10:21:45;4.80;61.00
19248;DHT22;9758;48.640;8.148;2023-02-15T10:24:19;4.90;60.70
19248;DHT22;9758;48.640;8.148;2023-02-15T10:26:50;4.90;60.50
19248;DHT22;9758;48.640;8.148;2023-02-15T10:29:19;4.90;60.60
19248;DHT22;9758;48.640;8.148;2023-02-15T10:31:49;4.90;60.70
19248;DHT22;9758;48.640;8.148;2023-02-15T10:34:16;4.90;60.50
19248;DHT22;9758;48.640;8.148;2023-02-15T10:39:32;4.80;60.80
19248;DHT22;9758;48.640;8.148;2023-02-15T10:42:05;4.90;60.90
19248;DHT22;9758;48.640;8.148;2023-02-15T10:44:38;4.90;60.80
19248;DHT22;9758;48.640;8.148;2023-02-15T10:47:13;4.90;60.80
19248;DHT22;9758;48.640;8.148;2023-02-15T10:49:53;4.90;60.90
19248;DHT22;9758;48.640;8.148;2023-02-15T10:52:28;4.90;60.70
19248;DHT22;9758;48.640;8.148;2023-02-15T10:54:58;4.90;60.70
19248;DHT22;9758;48.640;8.148;2023-02-15T10:57:29;4.80;60.80
19248;DHT22;9758;48.640;8.148;2023-02-15T11:00:00;4.80;61.00
19248;DHT22;9758;48.640;8.148;2023-02-15T11:02:31;4.90;61.10
19248;DHT22;9758;48.640;8.148;2023-02-15T11:05:07;4.90;61.10
19248;DHT22;9758;48.640;8.148;2023-02-15T11:07:43;5.00;61.10
19248;DHT22;9758;48.640;8.148;2023-02-15T11:10:15;5.10;61.10
19248;DHT22;9758;48.640;8.148;2023-02-15T11:12:46;5.20;61.90
19248;DHT22;9758;48.640;8.148;2023-02-15T11:15:15;5.30;61.20
19248;DHT22;9758;48.640;8.148;2023-02-15T11:17:45;5.50;61.20
19248;DHT22;9758;48.640;8.148;2023-02-15T11:20:15;5.60;61.10
19248;DHT22;9758;48.640;8.148;2023-02-15T11:22:46;5.70;60.80
19248;DHT22;9758;48.640;8.148;2023-02-15T11:25:17;5.80;60.80
19248;DHT22;9758;48.640;8.148;2023-02-15T11:27:44;5.80;60.90
19248;DHT22;9758;48.640;8.148;2023-02-15T11:30:12;5.90;60.90
19248;DHT22;9758;48.640;8.148;2023-02-15T11:32:39;6.00;60.60
19248;DHT22;9758;48.640;8.148;2023-02-15T11:35:10;6.00;60.50
19248;DHT22;9758;48.640;8.148;2023-02-15T11:37:39;5.90;61.30
19248;DHT22;9758;48.640;8.148;2023-02-15T11:42:55;6.10;60.60
19248;DHT22;9758;48.640;8.148;2023-02-15T11:45:24;6.10;60.40
19248;DHT22;9758;48.640;8.148;2023-02-15T11:47:52;6.00;60.50
19248;DHT22;9758;48.640;8.148;2023-02-15T11:50:20;6.00;60.60
19248;DHT22;9758;48.640;8.148;2023-02-15T11:52:48;6.10;60.80
19248;DHT22;9758;48.640;8.148;2023-02-15T11:55:17;6.00;60.60
19248;DHT22;9758;48.640;8.148;2023-02-15T11:57:45;6.00;60.80
19248;DHT22;9758;48.640;8.148;2023-02-15T12:00:16;6.00;60.80
19248;DHT22;9758;48.640;8.148;2023-02-15T12:02:48;6.10;60.90
19248;DHT22;9758;48.640;8.148;2023-02-15T12:05:19;6.20;60.90
19248;DHT22;9758;48.640;8.148;2023-02-15T12:07:49;6.20;61.30
19248;DHT22;9758;48.640;8.148;2023-02-15T12:10:19;6.30;60.60
19248;DHT22;9758;48.640;8.148;2023-02-15T12:12:46;6.30;60.70
19248;DHT22;9758;48.640;8.148;2023-02-15T12:15:14;6.30;60.70
19248;DHT22;9758;48.640;8.148;2023-02-15T12:17:55;6.40;60.90
19248;DHT22;9758;48.640;8.148;2023-02-15T12:20:24;6.50;60.70
19248;DHT22;9758;48.640;8.148;2023-02-15T12:22:53;6.50;60.60
19248;DHT22;9758;48.640;8.148;2023-02-15T12:25:21;6.60;60.50
19248;DHT22;9758;48.640;8.148;2023-02-15T12:27:48;6.70;61.30
19248;DHT22;9758;48.640;8.148;2023-02-15T12:30:18;6.70;60.30
19248;DHT22;9758;48.640;8.148;2023-02-15T12:32:47;6.50;60.20
19248;DHT22;9758;48.640;8.148;2023-02-15T12:35:16;6.40;60.60
19248;DHT22;9758;48.640;8.148;2023-02-15T12:37:51;6.40;60.80
19248;DHT22;9758;48.640;8.148;2023-02-15T12:40:19;6.40;60.80
19248;DHT22;9758;48.640;8.148;2023-02-15T12:42:49;6.50;60.90
19248;DHT22;9758;48.640;8.148;2023-02-15T12:45:22;6.50;60.50
19248;DHT22;9758;48.640;8.148;2023-02-15T12:47:53;6.40;60.30
19248;DHT22;9758;48.640;8.148;2023-02-15T12:50:33;6.40;60.60
19248;DHT22;9758;48.640;8.148;2023-02-15T12:53:06;6.40;60.90
19248;DHT22;9758;48.640;8.148;2023-02-15T12:55:33;6.40;60.80
19248;DHT22;9758;48.640;8.148;2023-02-15T12:58:06;6.40;60.70
19248;DHT22;9758;48.640;8.148;2023-02-15T13:00:34;6.50;60.80
19248;DHT22;9758;48.640;8.148;2023-02-15T13:03:00;6.50;60.60
19248;DHT22;9758;48.640;8.148;2023-02-15T13:05:30;6.40;60.60
19248;DHT22;9758;48.640;8.148;2023-02-15T13:07:58;6.30;60.60
19248;DHT22;9758;48.640;8.148;2023-02-15T13:10:26;6.20;60.60
19248;DHT22;9758;48.640;8.148;2023-02-15T13:12:54;6.10;60.90
19248;DHT22;9758;48.640;8.148;2023-02-15T13:15:27;6.10;61.10
19248;DHT22;9758;48.640;8.148;2023-02-15T13:17:56;6.20;61.30
19248;DHT22;9758;48.640;8.148;2023-02-15T13:20:23;6.30;61.40
19248;DHT22;9758;48.640;8.148;2023-02-15T13:22:52;6.40;61.20
19248;DHT22;9758;48.640;8.148;2023-02-15T13:25:20;6.50;62.00
19248;DHT22;9758;48.640;8.148;2023-02-15T13:27:48;6.60;61.10
19248;DHT22;9758;48.640;8.148;2023-02-15T13:30:23;6.70;60.90
19248;DHT22;9758;48.640;8.148;2023-02-15T13:32:52;6.80;60.60
19248;DHT22;9758;48.640;8.148;2023-02-15T13:35:21;6.70;60.40
19248;DHT22;9758;48.640;8.148;2023-02-15T13:40:36;6.30;60.80
19248;DHT22;9758;48.640;8.148;2023-02-15T13:43:12;6.10;61.00
19248;DHT22;9758;48.640;8.148;2023-02-15T13:45:44;6.00;61.20
19248;DHT22;9758;48.640;8.148;2023-02-15T13:48:15;6.00;61.40
19248;DHT22;9758;48.640;8.148;2023-02-15T13:50:54;5.90;61.50
19248;DHT22;9758;48.640;8.148;2023-02-15T13:53:36;5.90;61.40
19248;DHT22;9758;48.640;8.148;2023-02-15T13:56:05;5.90;61.50
19248;DHT22;9758;48.640;8.148;2023-02-15T13:58:45;5.90;61.70
19248;DHT22;9758;48.640;8.148;2023-02-15T14:01:19;5.80;61.50
19248;DHT22;9758;48.640;8.148;2023-02-15T14:06:38;5.90;61.50
19248;DHT22;9758;48.640;8.148;2023-02-15T14:09:09;6.00;61.70
19248;DHT22;9758;48.640;8.148;2023-02-15T14:11:39;6.10;61.60
19248;DHT22;9758;48.640;8.148;2023-02-15T14:14:14;6.20;61.40
19248;DHT22;9758;48.640;8.148;2023-02-15T14:16:45;6.40;61.40
19248;DHT22;9758;48.640;8.148;2023-02-15T14:19:16;6.50;61.20
19248;DHT22;9758;48.640;8.148;2023-02-15T14:21:48;6.50;61.00
19248;DHT22;9758;48.640;8.148;2023-02-15T14:24:20;6.60;60.90
19248;DHT22;9758;48.640;8.148;2023-02-15T14:26:51;6.70;60.90
19248;DHT22;9758;48.640;8.148;2023-02-15T14:29:22;6.70;60.50
19248;DHT22;9758;48.640;8.148;2023-02-15T14:31:52;6.70;60.50
19248;DHT22;9758;48.640;8.148;2023-02-15T14:34:21;6.70;60.50
19248;DHT22;9758;48.640;8.148;2023-02-15T14:36:50;6.70;60.50
19248;DHT22;9758;48.640;8.148;2023-02-15T14:39:22;6.60;60.50
19248;DHT22;9758;48.640;8.148;2023-02-15T14:42:10;6.60;60.60
19248;DHT22;9758;48.640;8.148;2023-02-15T14:44:41;6.60;60.70
19248;DHT22;9758;48.640;8.148;2023-02-15T14:47:10;6.70;60.70
19248;DHT22;9758;48.640;8.148;2023-02-15T14:49:38;6.80;60.70
19248;DHT22;9758;48.640;8.148;2023-02-15T14:52:07;6.80;60.50
19248;DHT22;9758;48.640;8.148;2023-02-15T14:54:55;6.80;60.50
19248;DHT22;9758;48.640;8.148;2023-02-15T14:57:23;6.70;60.50
19248;DHT22;9758;48.640;8.148;2023-02-15T14:59:52;6.80;60.50
19248;DHT22;9758;48.640;8.148;2023-02-15T15:02:23;6.70;60.50
19248;DHT22;9758;48.640;8.148;2023-02-15T15:04:55;6.60;60.40
19248;DHT22;9758;48.640;8.148;2023-02-15T15:07:26;6.60;60.50
19248;DHT22;9758;48.640;8.148;2023-02-15T15:10:00;6.50;60.50
19248;DHT22;9758;48.640;8.148;2023-02-15T15:12:39;6.50;60.70
19248;DHT22;9758;48.640;8.148;2023-02-15T15:15:07;6.40;60.80
19248;DHT22;9758;48.640;8.148;2023-02-15T15:17:51;6.40;60.90
19248;DHT22;9758;48.640;8.148;2023-02-15T15:25:46;6.60;60.80
19248;DHT22;9758;48.640;8.148;2023-02-15T15:31:00;6.50;60.60
19248;DHT22;9758;48.640;8.148;2023-02-15T15:39:01;6.60;61.50
19248;DHT22;9758;48.640;8.148;2023-02-15T15:41:39;6.70;60.80
19248;DHT22;9758;48.640;8.148;2023-02-15T15:44:20;6.70;60.90
19248;DHT22;9758;48.640;8.148;2023-02-15T15:47:05;6.90;60.90
19248;DHT22;9758;48.640;8.148;2023-02-15T15:49:35;7.00;60.90
19248;DHT22;9758;48.640;8.148;2023-02-15T15:52:07;7.10;60.70
19248;DHT22;9758;48.640;8.148;2023-02-15T15:54:35;7.10;60.40
19248;DHT22;9758;48.640;8.148;2023-02-15T15:57:06;7.00;60.30
19248;DHT22;9758;48.640;8.148;2023-02-15T15:59:38;7.00;60.30
19248;DHT22;9758;48.640;8.148;2023-02-15T16:02:11;7.00;60.40
19248;DHT22;9758;48.640;8.148;2023-02-15T16:04:40;7.00;60.20
19248;DHT22;9758;48.640;8.148;2023-02-15T16:07:14;6.90;60.40
19248;DHT22;9758;48.640;8.148;2023-02-15T16:09:40;6.90;60.60
19248;DHT22;9758;48.640;8.148;2023-02-15T16:12:13;6.80;60.60
19248;DHT22;9758;48.640;8.148;2023-02-15T16:14:40;6.90;60.60
19248;DHT22;9758;48.640;8.148;2023-02-15T16:17:13;7.00;60.60
19248;DHT22;9758;48.640;8.148;2023-02-15T16:19:42;7.10;60.60
19248;DHT22;9758;48.640;8.148;2023-02-15T16:22:10;7.10;60.50
19248;DHT22;9758;48.640;8.148;2023-02-15T16:27:14;7.20;60.30
19248;DHT22;9758;48.640;8.148;2023-02-15T16:29:44;7.30;60.30
19248;DHT22;9758;48.640;8.148;2023-02-15T16:32:17;7.30;60.20
19248;DHT22;9758;48.640;8.148;2023-02-15T16:34:51;7.30;60.10
19248;DHT22;9758;48.640;8.148;2023-02-15T16:37:19;7.30;60.00
19248;DHT22;9758;48.640;8.148;2023-02-15T16:39:47;7.40;60.00
19248;DHT22;9758;48.640;8.148;2023-02-15T16:42:16;7.40;60.00
19248;DHT22;9758;48.640;8.148;2023-02-15T16:44:43;7.40;60.00
19248;DHT22;9758;48.640;8.148;2023-02-15T16:47:12;7.40;59.90
19248;DHT22;9758;48.640;8.148;2023-02-15T16:49:43;7.40;59.90
19248;DHT22;9758;48.640;8.148;2023-02-15T16:52:12;7.40;59.80
19248;DHT22;9758;48.640;8.148;2023-02-15T16:54:41;7.40;59.80